createdAt,value
2022-12-31T00:01:17.193Z,1.87
2022-12-31T00:03:47.394Z,1.77
2022-12-31T00:06:19.329Z,1.80
2022-12-31T00:08:49.183Z,1.73
2022-12-31T00:11:18.978Z,1.60
2022-12-31T00:13:49.217Z,2.10
2022-12-31T00:16:23.188Z,2.13
2022-12-31T00:18:55.093Z,2.43
2022-12-31T00:21:25.361Z,1.35
2022-12-31T00:23:55.081Z,1.53
2022-12-31T00:26:26.812Z,1.80
2022-12-31T00:28:57.989Z,1.97
2022-12-31T00:31:32.002Z,1.23
2022-12-31T00:34:02.276Z,1.30
2022-12-31T00:36:34.681Z,1.50
2022-12-31T00:39:05.439Z,1.50
2022-12-31T00:41:35.602Z,1.63
2022-12-31T00:44:05.626Z,1.40
2022-12-31T00:49:05.736Z,1.83
2022-12-31T00:51:35.158Z,1.43
2022-12-31T00:54:04.708Z,1.60
2022-12-31T00:56:34.879Z,1.30
2022-12-31T00:59:05.091Z,1.17
2022-12-31T01:01:39.601Z,1.10
2022-12-31T01:04:11.038Z,1.90
2022-12-31T01:06:41.368Z,1.07
2022-12-31T01:09:12.207Z,1.20
2022-12-31T01:11:41.605Z,1.50
2022-12-31T01:14:12.864Z,1.03
2022-12-31T01:16:46.664Z,1.30
2022-12-31T01:19:19.138Z,1.47
2022-12-31T01:21:49.618Z,1.30
2022-12-31T01:24:19.935Z,1.20
2022-12-31T01:26:51.180Z,1.23
2022-12-31T01:29:20.707Z,1.17
2022-12-31T01:31:52.735Z,1.10
2022-12-31T01:34:22.115Z,1.23
2022-12-31T01:36:51.504Z,1.10
2022-12-31T01:39:20.875Z,1.20
2022-12-31T01:41:50.944Z,1.27
2022-12-31T01:44:51.642Z,1.40
2022-12-31T01:47:33.506Z,1.20
2022-12-31T01:50:08.975Z,1.17
2022-12-31T01:52:41.099Z,1.10
2022-12-31T01:55:17.382Z,1.10
2022-12-31T01:57:50.328Z,1.13
2022-12-31T02:00:20.008Z,1.10
2022-12-31T02:02:52.550Z,1.30
2022-12-31T02:05:29.300Z,1.25
2022-12-31T02:08:00.120Z,1.17
2022-12-31T02:10:29.535Z,1.00
2022-12-31T02:12:59.091Z,0.93
2022-12-31T02:15:37.074Z,1.00
2022-12-31T02:18:15.405Z,0.80
2022-12-31T02:21:10.159Z,1.00
2022-12-31T02:24:20.536Z,1.10
2022-12-31T02:26:59.222Z,0.90
2022-12-31T02:30:00.956Z,0.90
2022-12-31T02:32:45.037Z,1.00
2022-12-31T02:35:20.007Z,0.90
2022-12-31T02:37:53.599Z,0.80
2022-12-31T02:40:24.897Z,0.80
2022-12-31T02:42:55.745Z,0.87
2022-12-31T02:45:32.204Z,0.70
2022-12-31T02:48:25.698Z,0.60
2022-12-31T02:51:08.476Z,0.60
2022-12-31T02:54:00.006Z,0.60
2022-12-31T02:56:34.056Z,0.70
2022-12-31T02:59:23.818Z,0.87
2022-12-31T03:02:11.564Z,0.60
2022-12-31T03:04:45.948Z,1.00
2022-12-31T03:07:20.697Z,0.80
2022-12-31T03:09:50.382Z,0.80
2022-12-31T03:12:33.872Z,0.90
2022-12-31T03:15:06.684Z,0.97
2022-12-31T03:17:36.603Z,0.90
2022-12-31T03:20:22.374Z,0.90
2022-12-31T03:22:51.759Z,0.83
2022-12-31T03:25:34.338Z,0.90
2022-12-31T03:28:05.349Z,0.85
2022-12-31T03:30:36.407Z,0.90
2022-12-31T03:33:07.917Z,0.90
2022-12-31T03:35:41.309Z,1.10
2022-12-31T03:38:11.449Z,0.80
2022-12-31T03:40:42.757Z,0.90
2022-12-31T03:43:12.189Z,1.10
2022-12-31T03:45:41.947Z,1.10
2022-12-31T03:48:12.480Z,0.90
2022-12-31T03:50:44.424Z,1.23
2022-12-31T03:53:14.028Z,0.98
2022-12-31T03:55:43.453Z,0.80
2022-12-31T03:58:12.899Z,0.93
2022-12-31T04:00:42.331Z,1.00
2022-12-31T04:03:12.056Z,1.63
2022-12-31T04:05:44.119Z,1.00
2022-12-31T04:08:13.538Z,0.80
2022-12-31T04:10:42.932Z,0.90
2022-12-31T04:13:12.317Z,1.10
2022-12-31T04:15:41.836Z,1.30
2022-12-31T04:18:11.288Z,1.37
2022-12-31T04:20:40.672Z,1.50
2022-12-31T04:23:12.692Z,1.53
2022-12-31T04:25:42.164Z,1.80
2022-12-31T04:28:13.878Z,1.90
2022-12-31T04:30:43.231Z,1.50
2022-12-31T04:33:12.646Z,1.97
2022-12-31T04:35:42.014Z,1.53
2022-12-31T04:38:14.030Z,1.80
2022-12-31T04:41:03.534Z,1.50
2022-12-31T04:43:33.345Z,1.50
2022-12-31T04:46:03.721Z,1.33
2022-12-31T04:48:33.592Z,1.37
2022-12-31T04:51:03.373Z,1.37
2022-12-31T04:53:35.411Z,1.47
2022-12-31T04:56:04.873Z,1.08
2022-12-31T04:58:34.590Z,1.20
2022-12-31T05:01:04.567Z,1.00
2022-12-31T05:03:34.743Z,0.90
2022-12-31T05:06:04.760Z,0.55
2022-12-31T05:08:36.781Z,0.60
2022-12-31T05:11:06.739Z,0.75
2022-12-31T05:13:36.544Z,0.73
2022-12-31T05:16:06.517Z,0.50
2022-12-31T05:18:37.880Z,0.60
2022-12-31T05:21:08.964Z,0.70
2022-12-31T05:23:40.933Z,0.50
2022-12-31T05:26:10.396Z,0.52
2022-12-31T05:28:39.865Z,0.43
2022-12-31T05:31:09.397Z,0.50
2022-12-31T05:33:39.077Z,0.40
2022-12-31T05:36:08.972Z,0.43
2022-12-31T05:38:41.167Z,0.32
2022-12-31T05:41:11.563Z,0.50
2022-12-31T05:43:40.993Z,0.33
2022-12-31T05:46:11.017Z,0.43
2022-12-31T05:48:40.519Z,0.33
2022-12-31T05:51:09.944Z,0.63
2022-12-31T05:53:41.889Z,0.47
2022-12-31T05:56:11.267Z,0.32
2022-12-31T05:58:40.673Z,0.33
2022-12-31T06:01:10.112Z,0.40
2022-12-31T06:03:39.638Z,0.57
2022-12-31T06:06:09.670Z,0.60
2022-12-31T06:08:41.675Z,0.30
2022-12-31T06:11:11.061Z,0.20
2022-12-31T06:13:40.484Z,0.40
2022-12-31T06:16:10.749Z,0.90
2022-12-31T06:18:40.411Z,1.30
2022-12-31T06:21:09.988Z,0.60
2022-12-31T06:23:43.018Z,0.55
2022-12-31T06:26:12.474Z,0.40
2022-12-31T06:28:42.186Z,0.80
2022-12-31T06:31:15.157Z,0.40
2022-12-31T06:33:46.947Z,0.57
2022-12-31T06:36:19.229Z,0.30
2022-12-31T06:38:51.986Z,0.47
2022-12-31T06:43:50.998Z,0.57
2022-12-31T06:46:21.188Z,0.73
2022-12-31T06:48:50.630Z,0.63
2022-12-31T06:51:22.539Z,0.83
2022-12-31T06:53:54.805Z,0.75
2022-12-31T06:56:33.189Z,1.00
2022-12-31T06:59:04.346Z,0.93
2022-12-31T07:01:52.083Z,0.73
2022-12-31T07:04:58.120Z,0.90
2022-12-31T07:07:35.610Z,1.10
2022-12-31T07:10:17.011Z,1.30
2022-12-31T07:13:01.897Z,1.30
2022-12-31T07:15:48.472Z,1.38
2022-12-31T07:18:26.720Z,1.25
2022-12-31T07:20:57.039Z,1.83
2022-12-31T07:23:27.227Z,1.90
2022-12-31T07:26:07.334Z,1.53
2022-12-31T07:28:52.548Z,1.50
2022-12-31T07:31:33.569Z,1.63
2022-12-31T07:34:07.180Z,1.30
2022-12-31T07:36:56.639Z,1.33
2022-12-31T07:39:34.612Z,2.23
2022-12-31T07:42:14.035Z,1.40
2022-12-31T07:45:01.238Z,1.80
2022-12-31T07:47:32.276Z,1.93
2022-12-31T07:50:02.414Z,1.20
2022-12-31T07:52:32.451Z,1.50
2022-12-31T07:55:01.852Z,1.90
2022-12-31T07:57:39.747Z,1.37
2022-12-31T08:00:11.993Z,1.00
2022-12-31T08:03:03.726Z,0.90
2022-12-31T08:05:41.351Z,0.70
2022-12-31T08:08:26.168Z,0.60
2022-12-31T08:11:09.244Z,0.70
2022-12-31T08:13:42.965Z,0.70
2022-12-31T08:16:14.639Z,0.77
2022-12-31T08:18:44.616Z,0.90
2022-12-31T08:21:23.204Z,0.50
2022-12-31T08:24:04.282Z,0.95
2022-12-31T08:26:44.139Z,0.93
2022-12-31T08:29:35.988Z,0.60
2022-12-31T08:32:13.389Z,0.73
2022-12-31T08:34:53.613Z,0.70
2022-12-31T08:37:32.873Z,0.70
2022-12-31T08:40:22.459Z,0.67
2022-12-31T08:43:08.733Z,0.80
2022-12-31T08:45:44.526Z,0.70
2022-12-31T08:48:22.221Z,1.30
2022-12-31T08:50:52.236Z,1.00
2022-12-31T08:53:22.377Z,1.02
2022-12-31T08:55:55.582Z,1.03
2022-12-31T08:58:39.106Z,1.10
2022-12-31T09:01:12.023Z,0.90
2022-12-31T09:04:01.677Z,0.60
2022-12-31T09:06:36.557Z,0.90
2022-12-31T09:09:13.430Z,0.63
2022-12-31T09:11:56.182Z,0.63
2022-12-31T09:14:40.955Z,1.00
2022-12-31T09:17:31.873Z,1.00
2022-12-31T09:20:01.919Z,0.88
2022-12-31T09:22:31.922Z,0.90
2022-12-31T09:25:01.981Z,1.30
2022-12-31T09:27:39.853Z,1.15
2022-12-31T09:30:14.151Z,1.40
2022-12-31T09:33:00.577Z,1.50
2022-12-31T09:35:39.556Z,1.30
2022-12-31T09:38:17.945Z,1.23
2022-12-31T09:41:18.437Z,1.48
2022-12-31T09:44:09.892Z,1.15
2022-12-31T09:47:16.333Z,1.00
2022-12-31T09:50:16.149Z,1.20
2022-12-31T09:53:04.333Z,0.98
2022-12-31T09:55:39.576Z,1.20
2022-12-31T09:58:24.870Z,1.30
2022-12-31T10:00:58.954Z,1.00
2022-12-31T10:03:43.280Z,1.60
2022-12-31T10:06:27.290Z,0.80
2022-12-31T10:09:27.494Z,0.80
2022-12-31T10:12:14.171Z,1.30
2022-12-31T10:14:59.424Z,0.93
2022-12-31T10:17:42.533Z,0.68
2022-12-31T10:20:48.350Z,1.17
2022-12-31T10:23:29.098Z,1.10
2022-12-31T10:26:14.311Z,0.90
2022-12-31T10:28:56.718Z,0.90
2022-12-31T10:31:43.444Z,0.63
2022-12-31T10:34:25.395Z,0.95
2022-12-31T10:36:58.011Z,1.20
2022-12-31T10:42:36.732Z,1.08
2022-12-31T10:45:43.721Z,1.25
2022-12-31T10:48:56.339Z,0.82
2022-12-31T10:51:56.165Z,1.27
2022-12-31T10:55:00.351Z,1.20
2022-12-31T10:57:55.372Z,0.90
2022-12-31T11:00:32.197Z,1.00
2022-12-31T11:03:34.660Z,1.23
2022-12-31T11:06:34.647Z,0.73
2022-12-31T11:09:32.754Z,0.90
2022-12-31T11:12:13.114Z,0.70
2022-12-31T11:14:57.963Z,0.95
2022-12-31T11:17:39.684Z,0.80
2022-12-31T11:20:41.949Z,0.70
2022-12-31T11:23:29.083Z,0.50
2022-12-31T11:26:07.856Z,0.95
2022-12-31T11:28:47.711Z,0.85
2022-12-31T11:31:39.189Z,0.93
2022-12-31T11:34:30.728Z,1.00
2022-12-31T11:37:16.786Z,1.48
2022-12-31T11:39:52.683Z,1.30
2022-12-31T11:42:37.219Z,1.23
2022-12-31T11:45:17.301Z,1.60
2022-12-31T11:48:29.692Z,1.80
2022-12-31T11:50:57.870Z,1.48
2022-12-31T11:54:03.364Z,0.93
2022-12-31T11:56:38.169Z,1.42
2022-12-31T11:59:19.003Z,1.40
2022-12-31T12:01:58.134Z,1.50
2022-12-31T12:04:30.608Z,1.50
2022-12-31T12:07:00.155Z,1.40
2022-12-31T12:09:31.798Z,1.42
2022-12-31T12:12:02.322Z,1.23
2022-12-31T12:14:35.862Z,1.40
2022-12-31T12:17:09.014Z,1.40
2022-12-31T12:19:45.723Z,1.35
2022-12-31T12:22:21.816Z,1.10
2022-12-31T12:24:57.192Z,1.13
2022-12-31T12:27:30.116Z,1.40
2022-12-31T12:29:59.649Z,1.27
2022-12-31T12:32:29.706Z,1.25
2022-12-31T12:35:01.718Z,1.38
2022-12-31T12:37:35.459Z,1.35
2022-12-31T12:40:09.416Z,1.27
2022-12-31T12:42:38.927Z,1.75
2022-12-31T12:45:16.738Z,1.40
2022-12-31T12:47:48.823Z,1.42
2022-12-31T12:50:23.770Z,1.15
2022-12-31T12:53:19.481Z,1.50
2022-12-31T12:55:57.907Z,1.10
2022-12-31T12:58:44.843Z,1.33
2022-12-31T13:01:26.834Z,1.00
2022-12-31T13:04:34.744Z,1.20
2022-12-31T13:07:27.377Z,1.08
2022-12-31T13:10:29.881Z,0.98
2022-12-31T13:13:27.596Z,1.27
2022-12-31T13:16:04.715Z,1.02
2022-12-31T13:18:51.330Z,1.10
2022-12-31T13:21:35.362Z,1.15
2022-12-31T13:24:16.700Z,0.80
2022-12-31T13:26:52.618Z,1.15
2022-12-31T13:29:25.851Z,1.08
2022-12-31T13:31:56.987Z,1.05
2022-12-31T13:34:31.817Z,1.20
2022-12-31T13:37:05.961Z,1.05
2022-12-31T13:39:43.411Z,1.15
2022-12-31T13:42:19.471Z,1.10
2022-12-31T13:44:54.485Z,1.27
2022-12-31T13:47:35.527Z,1.25
2022-12-31T13:50:14.439Z,1.20
2022-12-31T13:52:51.721Z,1.30
2022-12-31T13:55:29.116Z,1.27
2022-12-31T13:58:04.940Z,0.98
2022-12-31T14:00:39.727Z,1.00
2022-12-31T14:03:16.121Z,1.02
2022-12-31T14:05:53.467Z,1.42
2022-12-31T14:08:22.980Z,1.60
2022-12-31T14:11:04.644Z,1.10
2022-12-31T14:13:48.700Z,1.60
2022-12-31T14:16:27.622Z,1.80
2022-12-31T14:19:05.297Z,1.85
2022-12-31T14:21:42.386Z,1.00
2022-12-31T14:24:17.499Z,1.50
2022-12-31T14:26:53.094Z,1.60
2022-12-31T14:29:34.929Z,1.48
2022-12-31T14:32:35.931Z,1.17
2022-12-31T14:35:23.360Z,1.10
2022-12-31T14:37:58.829Z,0.90
2022-12-31T14:40:35.434Z,1.10
2022-12-31T14:43:21.709Z,2.08
2022-12-31T14:46:03.454Z,0.88
2022-12-31T14:48:43.152Z,1.25
2022-12-31T14:51:13.932Z,1.33
2022-12-31T14:53:54.827Z,1.30
2022-12-31T14:56:34.060Z,1.20
2022-12-31T14:59:06.477Z,1.70
2022-12-31T15:01:47.187Z,1.50
2022-12-31T15:04:17.735Z,1.33
2022-12-31T15:07:00.920Z,1.10
2022-12-31T15:09:51.346Z,1.40
2022-12-31T15:12:31.221Z,1.10
2022-12-31T15:15:35.652Z,1.30
2022-12-31T15:18:27.816Z,1.35
2022-12-31T15:21:27.711Z,3.83
2022-12-31T15:23:57.928Z,1.77
2022-12-31T15:26:30.994Z,1.88
2022-12-31T15:29:04.079Z,1.70
2022-12-31T15:31:38.537Z,1.70
2022-12-31T15:34:10.574Z,1.48
2022-12-31T15:36:41.393Z,1.55
2022-12-31T15:39:39.568Z,1.35
2022-12-31T15:42:41.393Z,1.30
2022-12-31T15:45:21.367Z,1.40
2022-12-31T15:47:59.022Z,1.52
2022-12-31T15:50:30.348Z,1.40
2022-12-31T15:53:03.087Z,1.25
2022-12-31T15:58:09.715Z,1.27
2022-12-31T16:00:59.237Z,1.40
2022-12-31T16:03:33.595Z,1.60
2022-12-31T16:06:05.318Z,1.30
2022-12-31T16:08:37.037Z,1.70
2022-12-31T16:11:07.724Z,1.60
2022-12-31T16:13:39.768Z,1.50
2022-12-31T16:16:11.367Z,1.63
2022-12-31T16:18:45.701Z,1.63
2022-12-31T16:21:26.851Z,1.50
2022-12-31T16:23:58.195Z,1.50
2022-12-31T16:26:32.810Z,1.60
2022-12-31T16:29:04.342Z,1.77
2022-12-31T16:31:34.323Z,1.40
2022-12-31T16:34:16.082Z,2.80
2022-12-31T16:36:45.999Z,1.73
2022-12-31T16:39:34.123Z,1.40
2022-12-31T16:42:18.977Z,1.70
2022-12-31T16:44:48.839Z,1.88
2022-12-31T16:47:22.457Z,4.30
2022-12-31T16:50:04.074Z,3.60
2022-12-31T16:52:36.444Z,2.60
2022-12-31T16:55:10.887Z,2.95
2022-12-31T16:57:40.926Z,2.45
2022-12-31T17:00:17.618Z,5.38
2022-12-31T17:02:51.845Z,3.80
2022-12-31T17:05:26.341Z,4.15
2022-12-31T17:07:55.866Z,5.00
2022-12-31T17:10:27.831Z,4.93
2022-12-31T17:15:49.159Z,3.40
2022-12-31T17:18:22.186Z,3.38
2022-12-31T17:20:56.087Z,3.65
2022-12-31T17:23:29.147Z,3.60
2022-12-31T17:26:03.108Z,2.88
2022-12-31T17:28:40.793Z,2.60
2022-12-31T17:31:29.442Z,4.32
2022-12-31T17:34:22.663Z,2.97
2022-12-31T17:39:41.595Z,2.72
2022-12-31T17:42:12.738Z,4.10
2022-12-31T17:44:45.056Z,4.03
2022-12-31T17:47:16.527Z,6.35
2022-12-31T17:49:48.490Z,6.13
2022-12-31T17:52:20.439Z,12.43
2022-12-31T17:54:50.179Z,4.97
2022-12-31T17:57:29.211Z,2.63
2022-12-31T17:59:59.275Z,1.70
2022-12-31T18:02:28.834Z,2.35
2022-12-31T18:04:58.485Z,1.95
2022-12-31T18:07:30.467Z,2.30
2022-12-31T18:09:59.912Z,1.90
2022-12-31T18:12:29.313Z,1.90
2022-12-31T18:14:58.691Z,2.08
2022-12-31T18:17:28.413Z,2.22
2022-12-31T18:20:06.281Z,1.70
2022-12-31T18:22:39.468Z,2.05
2022-12-31T18:25:09.550Z,1.52
2022-12-31T18:27:41.054Z,1.75
2022-12-31T18:30:12.668Z,2.17
2022-12-31T18:32:43.480Z,1.90
2022-12-31T18:35:40.721Z,1.75
2022-12-31T18:38:14.132Z,1.70
2022-12-31T18:40:46.660Z,1.90
2022-12-31T18:45:48.019Z,1.90
2022-12-31T18:48:18.024Z,1.70
2022-12-31T18:50:48.245Z,2.00
2022-12-31T18:53:22.799Z,1.80
2022-12-31T18:55:53.735Z,1.90
2022-12-31T18:58:23.247Z,2.03
2022-12-31T19:00:53.496Z,1.58
2022-12-31T19:03:27.319Z,2.30
2022-12-31T19:05:56.937Z,1.88
2022-12-31T19:08:28.887Z,3.88
2022-12-31T19:10:58.331Z,3.17
2022-12-31T19:13:27.693Z,2.10
2022-12-31T19:15:58.701Z,2.10
2022-12-31T19:18:28.078Z,2.95
2022-12-31T19:20:57.453Z,2.10
2022-12-31T19:23:29.482Z,2.47
2022-12-31T19:25:58.910Z,2.20
2022-12-31T19:28:30.047Z,1.95
2022-12-31T19:30:59.486Z,2.03
2022-12-31T19:33:28.848Z,1.58
2022-12-31T19:35:58.232Z,1.92
2022-12-31T19:38:32.238Z,2.20
2022-12-31T19:41:02.128Z,2.00
2022-12-31T19:43:31.929Z,1.85
2022-12-31T19:46:01.681Z,2.10
2022-12-31T19:48:33.051Z,2.00
2022-12-31T19:51:02.950Z,1.70
2022-12-31T19:53:34.879Z,1.88
2022-12-31T19:56:04.290Z,1.85
2022-12-31T19:58:34.590Z,2.25
2022-12-31T20:01:04.131Z,2.10
2022-12-31T20:03:34.282Z,2.08
2022-12-31T20:06:07.019Z,2.50
2022-12-31T20:11:13.848Z,3.65
2022-12-31T20:13:43.833Z,2.47
2022-12-31T20:16:15.676Z,5.22
2022-12-31T20:18:46.712Z,5.15
2022-12-31T20:21:17.863Z,2.72
2022-12-31T20:23:50.596Z,2.70
2022-12-31T20:28:50.811Z,2.38
2022-12-31T20:31:21.986Z,3.00
2022-12-31T20:33:51.590Z,2.40
2022-12-31T20:36:20.963Z,2.42
2022-12-31T20:38:52.901Z,2.50
2022-12-31T20:41:24.999Z,1.98
2022-12-31T20:43:54.441Z,2.38
2022-12-31T20:46:25.789Z,2.67
2022-12-31T20:48:57.145Z,3.25
2022-12-31T20:51:26.869Z,5.97
2022-12-31T20:54:01.141Z,3.40
2022-12-31T20:56:33.189Z,3.65
2022-12-31T20:59:03.035Z,3.10
2022-12-31T21:01:55.603Z,3.78
2022-12-31T21:04:22.346Z,3.10
2022-12-31T21:06:52.390Z,2.75
2022-12-31T21:09:24.394Z,2.85
2022-12-31T21:12:06.336Z,2.67
2022-12-31T21:14:39.857Z,7.57
2022-12-31T21:17:12.239Z,7.47
2022-12-31T21:19:41.715Z,4.20
2022-12-31T21:22:11.549Z,5.32
2022-12-31T21:24:43.557Z,3.03
2022-12-31T21:27:13.036Z,3.40
2022-12-31T21:30:16.422Z,3.40
2022-12-31T21:32:31.854Z,2.92
2022-12-31T21:35:40.059Z,4.03
2022-12-31T21:37:58.434Z,3.10
2022-12-31T21:40:33.200Z,3.53
2022-12-31T21:43:02.812Z,2.50
2022-12-31T21:45:32.426Z,2.60
2022-12-31T21:48:14.502Z,3.17
2022-12-31T21:50:46.023Z,2.40
2022-12-31T21:53:20.231Z,2.28
2022-12-31T21:56:11.930Z,2.88
2022-12-31T21:58:43.347Z,4.90
2022-12-31T22:01:31.661Z,3.65
2022-12-31T22:04:01.195Z,3.53
2022-12-31T22:06:30.695Z,3.55
2022-12-31T22:09:00.453Z,2.50
2022-12-31T22:11:32.468Z,2.20
2022-12-31T22:14:01.843Z,2.85
2022-12-31T22:16:31.266Z,2.30
2022-12-31T22:19:00.726Z,3.90
2022-12-31T22:21:30.213Z,2.88
2022-12-31T22:24:03.080Z,4.00
2022-12-31T22:26:35.105Z,3.55
2022-12-31T22:29:04.482Z,3.53
2022-12-31T22:31:33.948Z,3.67
2022-12-31T22:34:03.377Z,4.07
2022-12-31T22:36:32.792Z,3.53
2022-12-31T22:39:02.210Z,4.25
2022-12-31T22:41:31.755Z,4.32
2022-12-31T22:44:05.129Z,4.38
2022-12-31T22:46:35.413Z,3.53
2022-12-31T22:49:07.101Z,3.47
2022-12-31T22:51:55.076Z,4.20
2022-12-31T22:54:26.128Z,4.75
2022-12-31T22:56:55.585Z,4.80
2022-12-31T22:59:27.791Z,34.13
2022-12-31T23:01:57.298Z,19.30
2022-12-31T23:04:26.863Z,34.67
2022-12-31T23:06:56.409Z,47.97
2022-12-31T23:09:38.366Z,41.47
2022-12-31T23:12:10.168Z,38.77
2022-12-31T23:14:54.663Z,127.10
2022-12-31T23:17:38.642Z,68.97
2022-12-31T23:20:22.549Z,52.50
2022-12-31T23:23:04.509Z,76.90
2022-12-31T23:25:34.792Z,28.00
2022-12-31T23:28:04.532Z,22.08
2022-12-31T23:30:36.736Z,20.83
2022-12-31T23:33:06.317Z,20.38
2022-12-31T23:35:36.199Z,18.88
2022-12-31T23:38:05.610Z,12.13
2022-12-31T23:40:36.843Z,10.73
2022-12-31T23:43:08.199Z,8.15
2022-12-31T23:45:40.338Z,11.82
2022-12-31T23:48:09.912Z,7.38
2022-12-31T23:50:39.344Z,6.10
2022-12-31T23:53:08.853Z,7.32
2022-12-31T23:55:38.360Z,6.47
2022-12-31T23:58:07.867Z,6.63
